TimeEDT,TemperatureF,Dew PointF,Humidity,Sea Level PressureIn,VisibilityMPH,Wind Direction,Wind SpeedMPH,Gust SpeedMPH,PrecipitationIn,Events,Conditions,WindDirDegrees,DateUTC
12:00 AM,78.8,77.0,94,29.97,6.2,NE,2.3,-,N/A,,Mostly Cloudy,50,2012-10-08 04:00:00
1:00 AM,78.8,77.0,94,29.97,6.2,NE,2.3,-,N/A,,Mostly Cloudy,50,2012-10-08 05:00:00
2:00 AM,78.8,77.0,94,29.94,6.2,ENE,2.3,-,N/A,,Mostly Cloudy,60,2012-10-08 06:00:00
3:00 AM,78.8,75.2,89,29.91,6.2,NE,2.3,-,N/A,,Scattered Clouds,50,2012-10-08 07:00:00
4:00 AM,78.8,75.2,89,29.92,6.2,NE,1.2,-,N/A,,Scattered Clouds,50,2012-10-08 08:00:00
5:00 AM,80,76,84,29.93,8,NE,1.2,,,,Partly Cloudy,50,2012-10-08 09:00:00
5:00 AM,78.8,77.0,94,29.93,6.2,NE,1.2,-,N/A,,Scattered Clouds,50,2012-10-08 09:00:00
7:00 AM,80.6,75.2,84,29.96,6.2,NE,8.1,-,N/A,,Scattered Clouds,50,2012-10-08 11:00:00
8:00 AM,80,76,86,29.96,9,ESE,3.5,,,,Partly Cloudy,110,2012-10-08 12:00:00
8:00 AM,80.6,77.0,89,29.96,6.2,ESE,3.5,-,N/A,,Scattered Clouds,110,2012-10-08 12:00:00
9:00 AM,82.4,75.2,79,29.96,6.2,East,2.3,-,N/A,,Partly Cloudy,90,2012-10-08 13:00:00
10:00 AM,84.2,75.2,74,29.97,6.2,ENE,6.9,-,N/A,,Partly Cloudy,70,2012-10-08 14:00:00
11:00 AM,88,78,64,29.99,9,ENE,9.2,,,,Partly Cloudy,70,2012-10-08 15:00:00
11:00 AM,87.8,77.0,70,29.98,6.2,ENE,9.2,-,N/A,,Scattered Clouds,70,2012-10-08 15:00:00
12:00 PM,86.0,75.2,70,29.98,6.2,ENE,11.5,-,N/A,,Scattered Clouds,70,2012-10-08 16:00:00
1:00 PM,86.0,75.2,70,29.96,6.2,ENE,8.1,-,N/A,,Scattered Clouds,70,2012-10-08 17:00:00
2:00 PM,88,76,61,29.94,9,NE,8.1,,,,Partly Cloudy,50,2012-10-08 18:00:00
2:00 PM,87.8,77.0,70,29.93,6.2,NE,8.1,-,N/A,,Scattered Clouds,50,2012-10-08 18:00:00
4:00 PM,84.2,75.2,74,29.91,6.2,NNE,3.5,-,N/A,,Scattered Clouds,30,2012-10-08 20:00:00
5:00 PM,85,78,73,29.91,9,NE,6.9,,,,Partly Cloudy,40,2012-10-08 21:00:00
5:00 PM,84.2,77.0,79,29.91,6.2,NE,6.9,-,N/A,,Scattered Clouds,40,2012-10-08 21:00:00
6:00 PM,84.2,75.2,74,29.91,6.2,NE,5.8,-,N/A,,Mostly Cloudy,40,2012-10-08 22:00:00
7:00 PM,84.2,75.2,74,29.92,6.2,Variable,2.3,-,N/A,,Mostly Cloudy,0,2012-10-08 23:00:00
8:00 PM,82,76,78,29.94,9,,2.3,,,,Scattered Clouds,,2012-10-09 00:00:00
8:00 PM,82.4,75.2,79,29.94,6.2,Variable,2.3,-,N/A,,Partly Cloudy,0,2012-10-09 00:00:00
9:00 PM,82.4,75.2,79,29.96,6.2,Calm,Calm,-,N/A,,Scattered Clouds,0,2012-10-09 01:00:00
10:00 PM,82.4,75.2,79,29.98,6.2,Calm,Calm,-,N/A,,Scattered Clouds,0,2012-10-09 02:00:00
11:00 PM,82,78,85,29.99,8,ENE,3.5,,,,Partly Cloudy,60,2012-10-09 03:00:00
11:00 PM,82.4,77.0,84,29.98,6.2,ENE,3.5,-,N/A,,Scattered Clouds,60,2012-10-09 03:00:00